createdAt,value
2024-01-16T00:02:21.719Z,97.58
2024-01-16T00:04:48.529Z,97.56
2024-01-16T00:07:15.214Z,97.96
2024-01-16T00:09:41.884Z,97.23
2024-01-16T00:12:08.733Z,97.98
2024-01-16T00:14:38.584Z,97.81
2024-01-16T00:17:06.349Z,97.04
2024-01-16T00:19:33.159Z,97.29
2024-01-16T00:22:01.365Z,96.65
2024-01-16T00:24:28.078Z,97.56
2024-01-16T00:26:58.263Z,96.60
2024-01-16T00:29:25.000Z,97.27
2024-01-16T00:31:51.595Z,96.92
2024-01-16T00:34:18.351Z,96.70
2024-01-16T00:36:45.088Z,96.24
2024-01-16T00:39:11.682Z,96.57
2024-01-16T00:41:38.284Z,97.03
2024-01-16T00:44:05.071Z,97.14
2024-01-16T00:46:31.687Z,97.12
2024-01-16T00:48:58.370Z,96.78
2024-01-16T00:51:25.123Z,97.13
2024-01-16T00:53:51.805Z,96.75
2024-01-16T00:56:18.945Z,96.88
2024-01-16T00:58:45.702Z,96.99
2024-01-16T01:01:12.389Z,97.06
2024-01-16T01:03:39.106Z,97.42
2024-01-16T01:06:06.021Z,96.94
2024-01-16T01:08:32.720Z,97.36
2024-01-16T01:10:59.463Z,97.61
2024-01-16T01:13:26.491Z,97.47
2024-01-16T01:15:53.589Z,97.20
2024-01-16T01:18:20.466Z,97.17
2024-01-16T01:20:47.477Z,97.86
2024-01-16T01:23:14.183Z,97.30
2024-01-16T01:25:40.960Z,97.69
2024-01-16T01:28:07.568Z,97.25
2024-01-16T01:30:34.285Z,96.69
2024-01-16T01:33:01.193Z,97.14
2024-01-16T01:35:28.640Z,96.26
2024-01-16T01:37:55.386Z,96.36
2024-01-16T01:40:22.169Z,96.33
2024-01-16T01:42:48.787Z,96.13
2024-01-16T01:45:15.477Z,95.81
2024-01-16T01:47:45.466Z,95.91
2024-01-16T01:50:12.446Z,95.80
2024-01-16T01:52:42.506Z,96.51
2024-01-16T01:55:13.352Z,96.83
2024-01-16T01:57:41.242Z,96.64
2024-01-16T02:00:08.199Z,96.61
2024-01-16T02:02:34.918Z,96.64
2024-01-16T02:05:01.976Z,96.30
2024-01-16T02:07:29.884Z,97.29
2024-01-16T02:09:56.521Z,96.60
2024-01-16T02:12:25.761Z,96.57
2024-01-16T02:14:52.644Z,96.42
2024-01-16T02:17:23.069Z,96.85
2024-01-16T02:19:49.726Z,97.69
2024-01-16T02:22:19.339Z,96.85
2024-01-16T02:24:46.036Z,97.14
2024-01-16T02:27:12.715Z,97.78
2024-01-16T02:29:44.169Z,97.39
2024-01-16T02:32:12.805Z,97.44
2024-01-16T02:34:39.626Z,96.99
2024-01-16T02:37:06.242Z,96.93
2024-01-16T02:39:32.882Z,96.61
2024-01-16T02:41:59.593Z,96.91
2024-01-16T02:44:26.624Z,97.52
2024-01-16T02:46:53.538Z,97.08
2024-01-16T02:49:20.306Z,97.70
2024-01-16T02:51:46.970Z,96.91
2024-01-16T02:54:15.928Z,98.10
2024-01-16T02:56:42.674Z,98.11
2024-01-16T02:59:10.420Z,97.46
2024-01-16T03:01:37.008Z,97.51
2024-01-16T03:04:03.712Z,98.49
2024-01-16T03:06:31.113Z,98.24
2024-01-16T03:08:58.119Z,98.19
2024-01-16T03:11:24.794Z,98.78
2024-01-16T03:13:53.720Z,98.56
2024-01-16T03:16:20.470Z,98.23
2024-01-16T03:18:47.377Z,98.78
2024-01-16T03:21:14.751Z,98.62
2024-01-16T03:23:41.563Z,99.09
2024-01-16T03:26:08.284Z,98.69
2024-01-16T03:28:35.320Z,99.09
2024-01-16T03:31:02.134Z,99.57
2024-01-16T03:33:28.982Z,98.46
2024-01-16T03:35:55.711Z,98.93
2024-01-16T03:38:22.606Z,98.09
2024-01-16T03:40:49.266Z,98.54
2024-01-16T03:43:15.912Z,97.39
2024-01-16T03:45:42.665Z,96.84
2024-01-16T03:48:09.667Z,98.25
2024-01-16T03:50:37.530Z,98.44
2024-01-16T03:53:05.309Z,97.53
2024-01-16T03:55:32.491Z,98.36
2024-01-16T03:57:59.142Z,97.55
2024-01-16T04:00:28.437Z,97.24
2024-01-16T04:02:55.025Z,97.77
2024-01-16T04:05:21.800Z,97.46
2024-01-16T04:07:48.473Z,97.03
2024-01-16T04:10:15.083Z,96.85
2024-01-16T04:12:41.755Z,96.47
2024-01-16T04:15:08.808Z,97.27
2024-01-16T04:17:35.665Z,97.31
2024-01-16T04:20:02.380Z,96.73
2024-01-16T04:22:29.029Z,96.29
2024-01-16T04:24:55.623Z,96.23
2024-01-16T04:27:22.235Z,96.83
2024-01-16T04:29:49.541Z,96.22
2024-01-16T04:32:16.273Z,96.55
2024-01-16T04:34:42.884Z,96.78
2024-01-16T04:37:09.518Z,95.75
2024-01-16T04:39:36.104Z,96.29
2024-01-16T04:42:02.691Z,95.70
2024-01-16T04:44:29.480Z,96.28
2024-01-16T04:46:56.101Z,96.00
2024-01-16T04:49:22.815Z,96.30
2024-01-16T04:51:49.572Z,96.55
2024-01-16T04:54:16.323Z,96.47
2024-01-16T04:56:42.993Z,96.87
2024-01-16T04:59:09.680Z,96.14
2024-01-16T05:01:39.414Z,96.61
2024-01-16T05:04:06.410Z,96.23
2024-01-16T05:06:33.168Z,96.24
2024-01-16T05:08:59.862Z,95.87
2024-01-16T05:11:26.500Z,96.12
2024-01-16T05:13:58.396Z,96.17
2024-01-16T05:16:28.356Z,96.04
2024-01-16T05:18:55.441Z,96.55
2024-01-16T05:21:22.521Z,96.83
2024-01-16T05:23:49.146Z,96.55
2024-01-16T05:26:15.812Z,97.07
2024-01-16T05:28:42.480Z,97.01
2024-01-16T05:31:09.039Z,97.05
2024-01-16T05:33:35.775Z,96.13
2024-01-16T05:36:03.492Z,95.95
2024-01-16T05:38:30.165Z,95.86
2024-01-16T05:40:56.806Z,96.33
2024-01-16T05:43:23.575Z,95.98
2024-01-16T05:45:51.437Z,96.22
2024-01-16T05:48:18.111Z,96.18
2024-01-16T05:50:45.162Z,95.31
2024-01-16T05:53:11.792Z,95.66
2024-01-16T05:55:39.090Z,94.92
2024-01-16T05:58:06.706Z,95.63
2024-01-16T06:00:35.384Z,94.77
2024-01-16T06:03:02.129Z,95.68
2024-01-16T06:05:28.887Z,95.73
2024-01-16T06:07:55.510Z,96.05
2024-01-16T06:10:22.333Z,96.16
2024-01-16T06:12:48.987Z,95.74
2024-01-16T06:15:15.711Z,96.32
2024-01-16T06:17:42.419Z,96.25
2024-01-16T06:20:09.616Z,96.06
2024-01-16T06:22:36.406Z,95.96
2024-01-16T06:25:03.345Z,95.81
2024-01-16T06:27:30.048Z,96.15
2024-01-16T06:29:56.693Z,96.41
2024-01-16T06:32:23.455Z,96.47
2024-01-16T06:34:50.291Z,96.40
2024-01-16T06:37:17.171Z,96.41
2024-01-16T06:39:43.759Z,96.91
2024-01-16T06:42:11.552Z,96.20
2024-01-16T06:44:38.831Z,95.97
2024-01-16T06:47:06.298Z,97.06
2024-01-16T06:49:33.411Z,96.95
2024-01-16T06:52:00.207Z,97.36
2024-01-16T06:54:27.300Z,97.47
2024-01-16T06:56:54.071Z,97.50
2024-01-16T06:59:22.675Z,97.43
2024-01-16T07:01:49.878Z,97.48
2024-01-16T07:04:16.815Z,97.59
2024-01-16T07:06:44.536Z,97.53
2024-01-16T07:09:14.176Z,97.43
2024-01-16T07:11:44.033Z,97.32
2024-01-16T07:14:11.488Z,97.51
2024-01-16T07:16:38.270Z,96.79
2024-01-16T07:19:05.517Z,96.85
2024-01-16T07:21:32.303Z,96.92
2024-01-16T07:23:58.916Z,97.19
2024-01-16T07:26:25.728Z,96.74
2024-01-16T07:28:52.817Z,96.90
2024-01-16T07:31:19.351Z,97.34
2024-01-16T07:33:46.057Z,96.81
2024-01-16T07:36:13.191Z,96.30
2024-01-16T07:38:40.102Z,96.88
2024-01-16T07:41:07.255Z,96.86
2024-01-16T07:43:33.906Z,97.08
2024-01-16T07:46:00.598Z,96.77
2024-01-16T07:48:27.384Z,96.52
2024-01-16T07:50:54.196Z,96.53
2024-01-16T07:53:21.031Z,97.23
2024-01-16T07:55:47.824Z,97.32
2024-01-16T07:58:15.154Z,96.98
2024-01-16T08:00:42.155Z,97.54
2024-01-16T08:03:12.641Z,97.16
2024-01-16T08:05:39.640Z,97.93
2024-01-16T08:08:06.803Z,97.08
2024-01-16T08:10:33.458Z,97.82
2024-01-16T08:13:00.051Z,97.19
2024-01-16T08:15:26.812Z,97.60
2024-01-16T08:17:53.639Z,97.40
2024-01-16T08:20:20.315Z,97.20
2024-01-16T08:22:46.929Z,96.82
2024-01-16T08:25:13.711Z,96.88
2024-01-16T08:27:40.747Z,97.54
2024-01-16T08:30:08.489Z,97.26
2024-01-16T08:32:35.254Z,96.45
2024-01-16T08:35:02.157Z,97.30
2024-01-16T08:37:28.813Z,96.28
2024-01-16T08:39:55.411Z,96.14
2024-01-16T08:42:22.025Z,97.06
2024-01-16T08:44:48.915Z,97.16
2024-01-16T08:47:15.663Z,97.82
2024-01-16T08:49:42.618Z,97.64
2024-01-16T08:52:09.244Z,98.00
2024-01-16T08:54:36.023Z,97.65
2024-01-16T08:57:02.724Z,97.80
2024-01-16T08:59:29.694Z,97.50
2024-01-16T09:01:56.680Z,99.08
2024-01-16T09:04:24.088Z,97.72
2024-01-16T09:06:51.023Z,98.46
2024-01-16T09:09:17.822Z,97.61
2024-01-16T09:11:44.795Z,98.48
2024-01-16T09:14:11.471Z,97.22
2024-01-16T09:16:38.203Z,97.84
2024-01-16T09:19:04.908Z,98.69
2024-01-16T09:21:31.508Z,98.26
2024-01-16T09:23:58.204Z,97.29
2024-01-16T09:26:24.819Z,97.36
2024-01-16T09:28:51.444Z,97.13
2024-01-16T09:31:18.141Z,97.27
2024-01-16T09:33:45.143Z,97.74
2024-01-16T09:36:11.907Z,96.97
2024-01-16T09:38:38.680Z,96.98
2024-01-16T09:41:05.418Z,97.61
2024-01-16T09:43:32.908Z,96.92
2024-01-16T09:46:03.543Z,97.21
2024-01-16T09:48:32.006Z,97.25
2024-01-16T09:50:59.198Z,97.13
2024-01-16T09:53:26.323Z,97.07
2024-01-16T09:55:59.622Z,96.95
2024-01-16T09:58:26.977Z,96.70
2024-01-16T10:00:53.800Z,96.72
2024-01-16T10:03:20.644Z,96.76
2024-01-16T10:05:48.388Z,96.07
2024-01-16T10:08:15.034Z,96.79
2024-01-16T10:10:47.808Z,96.31
2024-01-16T10:13:18.364Z,96.67
2024-01-16T10:15:45.203Z,96.32
2024-01-16T10:18:29.016Z,96.03
2024-01-16T10:20:55.797Z,95.91
2024-01-16T10:23:30.444Z,95.81
2024-01-16T10:26:13.486Z,95.54
2024-01-16T10:28:41.355Z,95.40
2024-01-16T10:31:13.032Z,95.21
2024-01-16T10:33:40.621Z,95.34
2024-01-16T10:36:15.121Z,95.55
2024-01-16T10:38:46.197Z,95.33
2024-01-16T10:41:14.804Z,95.58
2024-01-16T10:43:41.943Z,95.07
2024-01-16T10:46:10.710Z,94.77
2024-01-16T10:48:37.803Z,95.00
2024-01-16T10:51:07.399Z,95.16
2024-01-16T10:53:34.950Z,94.59
2024-01-16T10:56:03.524Z,94.74
2024-01-16T10:58:32.731Z,94.70
2024-01-16T11:01:08.609Z,93.92
2024-01-16T11:03:42.066Z,93.68
2024-01-16T11:06:10.040Z,93.11
2024-01-16T11:08:38.087Z,93.19
2024-01-16T11:11:06.049Z,93.07
2024-01-16T11:13:35.268Z,92.51
2024-01-16T11:16:05.878Z,92.63
2024-01-16T11:18:36.609Z,92.66
2024-01-16T11:21:12.965Z,92.52
2024-01-16T11:23:42.367Z,92.27
2024-01-16T11:26:28.424Z,92.25
2024-01-16T11:28:57.767Z,92.09
2024-01-16T11:31:34.859Z,92.20
2024-01-16T11:34:03.399Z,91.04
2024-01-16T11:36:56.838Z,90.95
2024-01-16T11:39:27.321Z,90.73
2024-01-16T11:41:58.505Z,90.52
2024-01-16T11:44:55.594Z,90.19
2024-01-16T11:47:24.464Z,90.14
2024-01-16T11:49:52.718Z,90.88
2024-01-16T11:52:45.045Z,90.63
2024-01-16T11:55:33.759Z,89.56
2024-01-16T11:58:39.169Z,90.12
2024-01-16T12:01:06.877Z,88.83
2024-01-16T12:03:35.617Z,90.09
2024-01-16T12:06:04.718Z,89.87
2024-01-16T12:08:31.851Z,89.65
2024-01-16T12:11:00.852Z,89.17
2024-01-16T12:13:27.560Z,88.88
2024-01-16T12:16:07.363Z,89.26
2024-01-16T12:18:47.591Z,88.93
2024-01-16T12:21:42.324Z,88.19
2024-01-16T12:24:12.123Z,88.59
2024-01-16T12:26:42.623Z,88.13
2024-01-16T12:29:09.311Z,87.58
2024-01-16T12:31:36.111Z,87.86
2024-01-16T12:34:10.176Z,88.97
2024-01-16T12:36:39.037Z,88.63
2024-01-16T12:39:06.246Z,88.30
2024-01-16T12:41:42.278Z,89.12
2024-01-16T12:44:15.724Z,88.43
2024-01-16T12:46:44.647Z,88.92
2024-01-16T12:49:13.138Z,89.41
2024-01-16T12:51:41.284Z,89.65
2024-01-16T12:54:16.307Z,88.53
2024-01-16T12:56:43.325Z,89.43
2024-01-16T12:59:13.804Z,90.01
2024-01-16T13:01:45.669Z,89.31
2024-01-16T13:04:20.099Z,89.23
2024-01-16T13:06:47.807Z,89.76
2024-01-16T13:09:19.392Z,90.01
2024-01-16T13:11:56.197Z,89.53
2024-01-16T13:14:23.924Z,89.76
2024-01-16T13:16:57.056Z,90.36
2024-01-16T13:19:24.546Z,89.22
2024-01-16T13:21:51.657Z,89.17
2024-01-16T13:24:21.588Z,88.72
2024-01-16T13:26:48.392Z,89.07
2024-01-16T13:29:15.217Z,88.83
2024-01-16T13:32:02.098Z,87.84
2024-01-16T13:35:09.555Z,89.10
2024-01-16T13:37:39.088Z,89.57
2024-01-16T13:40:11.098Z,90.35
2024-01-16T13:42:38.555Z,90.25
2024-01-16T13:45:06.207Z,89.84
2024-01-16T13:47:33.093Z,90.29
2024-01-16T13:49:59.815Z,90.66
2024-01-16T13:52:28.044Z,90.57
2024-01-16T13:54:56.035Z,91.30
2024-01-16T13:57:22.665Z,90.85
2024-01-16T13:59:49.358Z,90.44
2024-01-16T14:02:16.874Z,91.07
2024-01-16T14:04:43.659Z,90.88
2024-01-16T14:07:13.387Z,91.24
2024-01-16T14:09:45.963Z,91.64
2024-01-16T14:12:13.676Z,91.10
2024-01-16T14:14:42.350Z,91.04
2024-01-16T14:17:09.264Z,91.46
2024-01-16T14:19:36.898Z,91.19
2024-01-16T14:22:03.996Z,91.31
2024-01-16T14:24:30.704Z,92.42
2024-01-16T14:27:00.195Z,92.21
2024-01-16T14:29:28.206Z,92.04
2024-01-16T14:31:57.311Z,91.34
2024-01-16T14:34:24.741Z,91.91
2024-01-16T14:36:51.812Z,91.33
2024-01-16T14:39:23.390Z,91.81
2024-01-16T14:42:26.271Z,91.56
2024-01-16T14:50:10.858Z,93.52
2024-01-16T14:52:38.210Z,92.99
2024-01-16T14:55:05.229Z,93.88
2024-01-16T14:57:47.744Z,94.10
2024-01-16T15:00:21.546Z,93.44
2024-01-16T15:02:49.106Z,93.75
2024-01-16T15:05:16.984Z,94.18
2024-01-16T15:07:44.166Z,93.84
2024-01-16T15:10:12.586Z,94.12
2024-01-16T15:12:42.907Z,94.33
2024-01-16T15:15:11.461Z,93.85
2024-01-16T15:17:38.233Z,93.97
2024-01-16T15:20:09.333Z,94.43
2024-01-16T15:22:44.787Z,94.33
2024-01-16T15:25:17.691Z,94.43
2024-01-16T15:27:46.461Z,94.62
2024-01-16T15:30:15.242Z,94.27
2024-01-16T15:32:42.397Z,94.15
2024-01-16T15:35:09.449Z,94.62
2024-01-16T15:37:36.340Z,94.56
2024-01-16T15:40:06.715Z,94.74
2024-01-16T15:42:34.035Z,94.51
2024-01-16T15:45:00.863Z,94.30
2024-01-16T15:47:31.076Z,94.52
2024-01-16T15:49:57.825Z,94.51
2024-01-16T15:52:24.486Z,94.55
2024-01-16T15:54:51.196Z,94.88
2024-01-16T15:57:20.343Z,95.00
2024-01-16T15:59:46.967Z,95.71
2024-01-16T16:02:13.675Z,95.66
2024-01-16T16:04:40.398Z,95.43
2024-01-16T16:07:07.684Z,95.85
2024-01-16T16:09:35.219Z,96.38
2024-01-16T16:12:01.963Z,96.36
2024-01-16T16:14:36.204Z,96.07
2024-01-16T16:17:05.818Z,96.23
2024-01-16T16:19:32.605Z,96.82
2024-01-16T16:21:59.331Z,96.58
2024-01-16T16:24:25.890Z,97.02
2024-01-16T16:26:54.843Z,96.87
2024-01-16T16:29:21.781Z,97.23
2024-01-16T16:31:48.496Z,96.80
2024-01-16T16:34:19.478Z,97.43
2024-01-16T16:36:46.655Z,97.47
2024-01-16T16:39:18.303Z,97.72
2024-01-16T16:41:45.056Z,97.60
2024-01-16T16:44:11.896Z,97.35
2024-01-16T16:46:38.751Z,97.52
2024-01-16T16:49:05.728Z,97.38
2024-01-16T16:51:34.856Z,97.92
2024-01-16T16:54:01.493Z,97.27
2024-01-16T16:56:28.249Z,97.36
2024-01-16T16:58:54.908Z,97.76
2024-01-16T17:01:21.678Z,98.14
2024-01-16T17:03:53.121Z,97.92
2024-01-16T17:06:20.291Z,98.05
2024-01-16T17:09:08.940Z,98.70
2024-01-16T17:11:35.869Z,98.45
2024-01-16T17:14:03.277Z,98.41
2024-01-16T17:16:29.856Z,98.13
2024-01-16T17:18:56.844Z,98.14
2024-01-16T17:21:23.668Z,98.75
2024-01-16T17:23:50.507Z,98.18
2024-01-16T17:26:17.562Z,98.46
2024-01-16T17:28:44.267Z,98.44
2024-01-16T17:31:10.937Z,98.86
2024-01-16T17:33:37.775Z,99.27
2024-01-16T17:36:11.550Z,100.00
2024-01-16T17:38:38.638Z,99.90
2024-01-16T17:41:05.963Z,99.97
2024-01-16T17:43:32.791Z,100.00
2024-01-16T17:45:59.510Z,100.00
2024-01-16T17:48:26.800Z,100.00
2024-01-16T17:50:53.852Z,100.00
2024-01-16T17:53:20.847Z,100.00
2024-01-16T17:55:47.682Z,100.00
2024-01-16T17:58:16.944Z,100.00
2024-01-16T18:00:43.721Z,100.00
2024-01-16T18:03:24.221Z,100.00
2024-01-16T18:06:00.574Z,100.00
2024-01-16T18:08:27.444Z,100.00
2024-01-16T18:10:55.729Z,100.00
2024-01-16T18:13:23.463Z,100.00
2024-01-16T18:15:50.134Z,100.00
2024-01-16T18:18:18.440Z,100.00
2024-01-16T18:20:45.474Z,100.00
2024-01-16T18:23:12.657Z,100.00
2024-01-16T18:25:39.304Z,100.00
2024-01-16T18:28:06.360Z,100.00
2024-01-16T18:30:36.020Z,100.00
2024-01-16T18:33:04.073Z,100.00
2024-01-16T18:35:30.936Z,100.00
2024-01-16T18:37:58.586Z,100.00
2024-01-16T18:40:27.016Z,100.00
2024-01-16T18:42:53.968Z,100.00
2024-01-16T18:45:21.220Z,100.00
2024-01-16T18:47:49.614Z,100.00
2024-01-16T18:50:19.077Z,100.00
2024-01-16T18:52:46.503Z,100.00
2024-01-16T18:55:14.680Z,100.00
2024-01-16T18:57:42.454Z,100.00
2024-01-16T19:00:16.501Z,100.00
2024-01-16T19:02:44.396Z,100.00
2024-01-16T19:05:14.851Z,100.00
2024-01-16T19:07:45.845Z,100.00
2024-01-16T19:10:17.590Z,100.00
2024-01-16T19:12:47.354Z,100.00
2024-01-16T19:15:19.151Z,100.00
2024-01-16T19:17:51.695Z,100.00
2024-01-16T19:20:22.885Z,100.00
2024-01-16T19:22:56.342Z,100.00
2024-01-16T19:25:26.469Z,100.00
2024-01-16T19:27:53.292Z,100.00
2024-01-16T19:30:20.923Z,100.00
2024-01-16T19:32:48.376Z,100.00
2024-01-16T19:35:15.854Z,100.00
2024-01-16T19:37:42.588Z,100.00
2024-01-16T19:40:14.497Z,100.00
2024-01-16T19:42:41.771Z,100.00
2024-01-16T19:45:10.641Z,100.00
2024-01-16T19:47:43.294Z,100.00
2024-01-16T19:50:21.453Z,100.00
2024-01-16T19:52:51.499Z,100.00
2024-01-16T19:55:20.616Z,100.00
2024-01-16T19:57:47.399Z,100.00
2024-01-16T20:00:15.108Z,100.00
2024-01-16T20:02:43.991Z,100.00
2024-01-16T20:05:11.005Z,100.00
2024-01-16T20:07:38.677Z,100.00
2024-01-16T20:10:07.952Z,100.00
2024-01-16T20:12:40.098Z,100.00
2024-01-16T20:15:22.090Z,100.00
2024-01-16T20:17:50.020Z,100.00
2024-01-16T20:20:17.063Z,100.00
2024-01-16T20:22:44.732Z,100.00
2024-01-16T20:25:14.995Z,100.00
2024-01-16T20:27:42.262Z,100.00
2024-01-16T20:30:10.049Z,100.00
2024-01-16T20:32:44.323Z,100.00
2024-01-16T20:35:14.040Z,100.00
2024-01-16T20:37:40.938Z,100.00
2024-01-16T20:40:08.600Z,100.00
2024-01-16T20:42:57.498Z,100.00
2024-01-16T20:45:24.889Z,100.00
2024-01-16T20:47:54.719Z,100.00
2024-01-16T20:50:21.483Z,100.00
2024-01-16T20:52:48.064Z,100.00
2024-01-16T20:55:14.668Z,100.00
2024-01-16T20:57:41.342Z,100.00
2024-01-16T21:00:14.628Z,100.00
2024-01-16T21:02:41.969Z,100.00
2024-01-16T21:05:09.343Z,100.00
2024-01-16T21:07:36.144Z,100.00
2024-01-16T21:10:02.866Z,100.00
2024-01-16T21:12:29.739Z,100.00
2024-01-16T21:14:56.474Z,100.00
2024-01-16T21:17:25.089Z,100.00
2024-01-16T21:19:52.190Z,100.00
2024-01-16T21:22:24.270Z,100.00
2024-01-16T21:24:57.289Z,100.00
2024-01-16T21:27:23.900Z,100.00
2024-01-16T21:29:50.573Z,100.00
2024-01-16T21:32:17.216Z,100.00
2024-01-16T21:34:47.501Z,100.00
2024-01-16T21:37:15.698Z,100.00
2024-01-16T21:39:42.346Z,100.00
2024-01-16T21:42:09.925Z,100.00
2024-01-16T21:44:36.549Z,100.00
2024-01-16T21:47:05.686Z,100.00
2024-01-16T21:49:32.297Z,100.00
2024-01-16T21:51:59.830Z,100.00
2024-01-16T21:54:27.442Z,100.00
2024-01-16T21:56:54.167Z,100.00
2024-01-16T21:59:20.879Z,100.00
2024-01-16T22:01:48.021Z,100.00
2024-01-16T22:04:14.777Z,100.00
2024-01-16T22:06:41.434Z,100.00
2024-01-16T22:09:09.920Z,100.00
2024-01-16T22:11:36.588Z,100.00
2024-01-16T22:14:05.412Z,100.00
2024-01-16T22:16:32.087Z,100.00
2024-01-16T22:18:58.763Z,100.00
2024-01-16T22:21:25.518Z,100.00
2024-01-16T22:23:52.609Z,100.00
2024-01-16T22:26:19.313Z,100.00
2024-01-16T22:28:46.004Z,100.00
2024-01-16T22:31:12.757Z,100.00
2024-01-16T22:33:39.617Z,100.00
2024-01-16T22:36:06.561Z,100.00
2024-01-16T22:38:33.204Z,100.00
2024-01-16T22:40:59.898Z,100.00
2024-01-16T22:43:26.494Z,100.00
2024-01-16T22:45:53.229Z,100.00
2024-01-16T22:48:20.095Z,100.00
2024-01-16T22:50:50.840Z,100.00
2024-01-16T22:53:18.225Z,100.00
2024-01-16T22:55:45.017Z,100.00
2024-01-16T22:58:12.779Z,100.00
2024-01-16T23:00:41.131Z,100.00
2024-01-16T23:03:40.187Z,100.00
2024-01-16T23:06:07.175Z,100.00
2024-01-16T23:08:34.066Z,100.00
2024-01-16T23:15:07.403Z,100.00
2024-01-16T23:17:35.041Z,100.00
2024-01-16T23:20:02.250Z,100.00
2024-01-16T23:22:31.034Z,100.00
2024-01-16T23:24:57.647Z,100.00
2024-01-16T23:27:24.372Z,100.00
2024-01-16T23:29:51.019Z,100.00
2024-01-16T23:32:18.368Z,100.00
2024-01-16T23:34:45.548Z,100.00
2024-01-16T23:37:13.982Z,100.00
2024-01-16T23:39:40.773Z,100.00
2024-01-16T23:42:15.094Z,100.00
2024-01-16T23:44:42.806Z,100.00
2024-01-16T23:47:09.585Z,100.00
2024-01-16T23:49:38.867Z,100.00
2024-01-16T23:52:09.707Z,100.00
2024-01-16T23:54:37.524Z,100.00
2024-01-16T23:57:05.196Z,100.00
2024-01-16T23:59:32.656Z,100.00
